Time;durP1;ratioP1;P1;durP2;ratioP2;P2;SDS_P1;SDS_P2;PMS_P1;PMS_P2;Temp;Humidity;BMP_temperature;BMP_pressure;BME280_temperature;BME280_humidity;BME280_pressure;Samples;Min_cycle;Max_cycle;Signal;HPM_P1;HPM_P2
2022/12/06 00:00:23;;;;;;;;;;;5.80;99.90;;;;;;5051952;28;20003;-72
2022/12/06 00:02:49;;;;;;;;;;;6.10;99.90;;;;;;5035078;28;19920;-72
2022/12/06 00:05:14;;;;;;;;;;;6.30;99.90;;;;;;5033330;28;19921;-72
2022/12/06 00:07:40;;;;;;;;;;;6.30;99.90;;;;;;5034421;28;19921;-72
2022/12/06 00:10:06;;;;;;;;;;;5.90;99.90;;;;;;5051922;28;19951;-72
2022/12/06 00:12:31;;;;;;;;;;;6.10;99.90;;;;;;5034040;28;19979;-73
2022/12/06 00:14:57;;;;;;;;;;;5.90;99.90;;;;;;5033386;28;19921;-72
2022/12/06 00:17:23;;;;;;;;;;;6.00;99.90;;;;;;5051679;28;20007;-72
2022/12/06 00:19:48;;;;;;;;;;;6.20;99.90;;;;;;5026676;28;19931;-72
2022/12/06 00:22:14;;;;;;;;;;;6.00;99.90;;;;;;5054140;28;20452;-73
2022/12/06 00:24:40;;;;;;;;;;;6.10;99.90;;;;;;5070844;28;20409;-72
2022/12/06 00:27:05;;;;;;;;;;;5.90;99.90;;;;;;5054081;28;20453;-72
2022/12/06 00:29:31;;;;;;;;;;;5.80;99.90;;;;;;5036892;28;19920;-72
2022/12/06 00:31:56;;;;;;;;;;;5.90;99.90;;;;;;5053597;28;20023;-73
2022/12/06 00:34:22;;;;;;;;;;;6.20;99.90;;;;;;5073815;28;19985;-72
2022/12/06 00:36:47;;;;;;;;;;;5.80;99.90;;;;;;5057108;28;19978;-73
2022/12/06 00:39:14;;;;;;;;;;;6.00;99.90;;;;;;5057170;28;19920;-72
2022/12/06 00:41:40;;;;;;;;;;;6.00;99.90;;;;;;5075429;28;19927;-73
2022/12/06 00:44:06;;;;;;;;;;;6.10;99.90;;;;;;5056637;28;19924;-72
2022/12/06 00:46:32;;;;;;;;;;;5.80;99.90;;;;;;5075122;28;20397;-73
2022/12/06 00:48:58;;;;;;;;;;;5.90;99.90;;;;;;5090464;22;19924;-74
2022/12/06 00:51:25;;;;;;;;;;;5.80;99.90;;;;;;5094419;28;19927;-73
2022/12/06 00:53:51;;;;;;;;;;;6.10;99.90;;;;;;5080212;28;19924;-73
2022/12/06 00:56:16;;;;;;;;;;;6.30;99.90;;;;;;5057228;28;19920;-73
2022/12/06 00:58:42;;;;;;;;;;;5.80;99.90;;;;;;5051395;28;19975;-74
2022/12/06 01:01:19;;;;;;;;;;;5.80;99.90;;;;;;5053807;28;20366;-73
2022/12/06 01:03:45;;;;;;;;;;;5.90;99.90;;;;;;5037199;28;19979;-73
2022/12/06 01:06:12;;;;;;;;;;;6.00;99.90;;;;;;5036668;28;19972;-73
2022/12/06 01:08:38;;;;;;;;;;;5.90;99.90;;;;;;5053502;28;19928;-73
2022/12/06 01:11:04;;;;;;;;;;;5.90;99.90;;;;;;5054487;28;19925;-73
2022/12/06 01:13:30;;;;;;;;;;;6.20;99.90;;;;;;5054897;28;19975;-73
2022/12/06 01:15:56;;;;;;;;;;;5.90;99.90;;;;;;5052766;28;20291;-73
2022/12/06 01:18:22;;;;;;;;;;;5.80;99.90;;;;;;5054812;28;19996;-73
2022/12/06 01:20:47;;;;;;;;;;;5.80;99.90;;;;;;5053830;28;19972;-74
2022/12/06 01:23:13;;;;;;;;;;;5.70;99.90;;;;;;5056064;28;20409;-73
2022/12/06 01:25:47;;;;;;;;;;;5.80;99.90;;;;;;5064488;28;19921;-73
2022/12/06 01:28:12;;;;;;;;;;;5.80;99.90;;;;;;5047977;28;19920;-73
2022/12/06 01:30:38;;;;;;;;;;;5.70;99.90;;;;;;5062201;28;20404;-73
2022/12/06 01:33:04;;;;;;;;;;;5.70;99.90;;;;;;5037175;28;19936;-73
2022/12/06 01:35:29;;;;;;;;;;;5.40;99.90;;;;;;5052898;28;19921;-73
2022/12/06 01:37:55;;;;;;;;;;;5.50;99.90;;;;;;5054789;28;20007;-73
2022/12/06 01:40:20;;;;;;;;;;;5.80;99.90;;;;;;5053425;28;19947;-73
2022/12/06 01:42:46;;;;;;;;;;;5.80;99.90;;;;;;5036928;28;19921;-73
2022/12/06 01:45:11;;;;;;;;;;;5.60;99.90;;;;;;5054096;28;20278;-73
2022/12/06 01:47:38;;;;;;;;;;;5.80;99.90;;;;;;5053050;28;19956;-73
2022/12/06 01:50:13;;;;;;;;;;;5.60;99.90;;;;;;5053057;28;20325;-73
2022/12/06 01:52:52;;;;;;;;;;;5.80;99.90;;;;;;5052859;28;19925;-73
2022/12/06 01:55:19;;;;;;;;;;;5.60;99.90;;;;;;5053247;28;20445;-73
2022/12/06 01:57:45;;;;;;;;;;;5.60;99.90;;;;;;5054237;28;19925;-73
2022/12/06 02:00:10;;;;;;;;;;;5.70;99.90;;;;;;5054058;28;19927;-74
2022/12/06 02:02:36;;;;;;;;;;;5.80;99.90;;;;;;5052712;28;19920;-73
2022/12/06 02:05:02;;;;;;;;;;;5.70;99.90;;;;;;5051797;28;20447;-73
2022/12/06 02:07:28;;;;;;;;;;;5.80;99.90;;;;;;5053672;28;20314;-74
2022/12/06 02:09:54;;;;;;;;;;;5.50;99.90;;;;;;5052385;28;19974;-73
2022/12/06 02:12:19;;;;;;;;;;;5.80;99.90;;;;;;5052585;28;20011;-73
2022/12/06 02:14:48;;;;;;;;;;;5.70;99.90;;;;;;5035025;28;20007;-73
2022/12/06 02:17:32;;;;;;;;;;;5.70;99.90;;;;;;5053478;28;19925;-73
2022/12/06 02:20:08;;;;;;;;;;;5.60;99.90;;;;;;5053377;28;20283;-74
2022/12/06 02:22:39;;;;;;;;;;;5.70;99.90;;;;;;5053493;28;19929;-71
2022/12/06 02:25:15;;;;;;;;;;;5.90;99.90;;;;;;5052878;28;19928;-71
2022/12/06 02:27:50;;;;;;;;;;;5.70;99.90;;;;;;5053557;28;19975;-71
2022/12/06 02:30:17;;;;;;;;;;;;;;;;;;5053265;28;19966;-72
2022/12/06 02:32:48;;;;;;;;;;;5.60;99.90;;;;;;5052227;28;20282;-71
2022/12/06 02:35:19;;;;;;;;;;;5.80;99.90;;;;;;5052226;28;19975;-71
2022/12/06 02:37:52;;;;;;;;;;;6.00;99.90;;;;;;5052114;28;19928;-71
2022/12/06 02:40:30;;;;;;;;;;;5.80;99.90;;;;;;5053020;28;19928;-72
2022/12/06 02:42:58;;;;;;;;;;;5.50;99.90;;;;;;5052129;28;19925;-71
2022/12/06 02:45:26;;;;;;;;;;;5.60;99.90;;;;;;5052530;28;19929;-72
2022/12/06 02:47:53;;;;;;;;;;;5.80;99.90;;;;;;5035298;28;19927;-72
2022/12/06 02:50:21;;;;;;;;;;;5.70;99.90;;;;;;5036361;28;19982;-72
2022/12/06 02:52:48;;;;;;;;;;;5.60;99.90;;;;;;5035103;28;19925;-72
2022/12/06 02:55:14;;;;;;;;;;;5.80;99.90;;;;;;5052128;28;19933;-71
2022/12/06 02:57:41;;;;;;;;;;;5.60;99.90;;;;;;5066544;28;19928;-73
2022/12/06 03:00:30;;;;;;;;;;;5.60;99.90;;;;;;5071239;28;20322;-72
2022/12/06 03:03:03;;;;;;;;;;;5.50;99.90;;;;;;5041770;28;19920;-71
2022/12/06 03:05:32;;;;;;;;;;;5.80;99.90;;;;;;5070808;28;20393;-71
2022/12/06 03:08:01;;;;;;;;;;;5.50;99.90;;;;;;5069723;28;20568;-72
2022/12/06 03:10:29;;;;;;;;;;;5.60;99.90;;;;;;5072873;28;19927;-72
2022/12/06 03:13:04;;;;;;;;;;;5.70;99.90;;;;;;5071442;28;19924;-74
2022/12/06 03:15:45;;;;;;;;;;;5.40;99.90;;;;;;5070752;28;20011;-72
2022/12/06 03:18:25;;;;;;;;;;;5.40;99.90;;;;;;5071117;28;20386;-72
2022/12/06 03:20:57;;;;;;;;;;;5.50;99.90;;;;;;5071214;28;19926;-74
2022/12/06 03:23:26;;;;;;;;;;;5.50;99.90;;;;;;5069682;28;19920;-71
2022/12/06 03:25:54;;;;;;;;;;;5.50;99.90;;;;;;5070539;28;19970;-71
2022/12/06 03:28:20;;;;;;;;;;;5.20;99.90;;;;;;5071444;28;19967;-72
2022/12/06 03:30:47;;;;;;;;;;;5.40;99.90;;;;;;5054810;28;19947;-72
2022/12/06 03:33:14;;;;;;;;;;;5.50;99.90;;;;;;5072104;28;19931;-72
2022/12/06 03:35:41;;;;;;;;;;;5.30;99.90;;;;;;5070206;28;20015;-71
2022/12/06 03:38:10;;;;;;;;;;;5.60;99.90;;;;;;5071151;28;19927;-72
2022/12/06 03:40:37;;;;;;;;;;;5.30;99.90;;;;;;5069279;28;19920;-71
2022/12/06 03:43:03;;;;;;;;;;;5.30;99.90;;;;;;5070592;28;19971;-72
2022/12/06 03:45:35;;;;;;;;;;;5.70;99.90;;;;;;5053805;28;19924;-72
2022/12/06 03:48:03;;;;;;;;;;;5.60;99.90;;;;;;5076592;28;19920;-72
2022/12/06 03:50:35;;;;;;;;;;;5.50;99.90;;;;;;5079340;28;20414;-71
2022/12/06 03:53:01;;;;;;;;;;;5.40;99.90;;;;;;5076406;28;19935;-72
2022/12/06 03:55:26;;;;;;;;;;;5.70;99.90;;;;;;5051706;28;20011;-72
2022/12/06 03:57:52;;;;;;;;;;;;;;;;;;5052439;28;19975;-72
2022/12/06 04:00:18;;;;;;;;;;;5.30;99.90;;;;;;5052851;28;19947;-72
2022/12/06 04:02:43;;;;;;;;;;;5.30;99.90;;;;;;5034875;28;19974;-72
2022/12/06 04:05:09;;;;;;;;;;;6.40;99.90;;;;;;5033689;28;19960;-72
2022/12/06 04:07:35;;;;;;;;;;;5.40;99.90;;;;;;5034712;28;19921;-72
2022/12/06 04:10:03;;;;;;;;;;;5.70;99.90;;;;;;5054813;28;20330;-72
2022/12/06 04:15:14;;;;;;;;;;;5.30;99.90;;;;;;5056578;28;20486;-72
2022/12/06 04:20:25;;;;;;;;;;;5.40;99.90;;;;;;5055903;28;19925;-72
2022/12/06 04:23:02;;;;;;;;;;;5.50;99.90;;;;;;5054355;28;19921;-72
2022/12/06 04:25:32;;;;;;;;;;;5.40;99.90;;;;;;5054886;28;20370;-72
2022/12/06 04:38:54;;;;;;;;;;;5.60;99.90;;;;;;5074174;28;20016;-72
2022/12/06 04:44:05;;;;;;;;;;;5.50;99.90;;;;;;5022704;28;19925;-72
2022/12/06 04:46:31;;;;;;;;;;;5.60;99.90;;;;;;5037541;28;19928;-72
2022/12/06 04:48:56;;;;;;;;;;;5.50;99.90;;;;;;5053689;28;19921;-72
2022/12/06 04:51:23;;;;;;;;;;;5.70;99.90;;;;;;5072095;28;19942;-72
2022/12/06 04:53:49;;;;;;;;;;;5.60;99.90;;;;;;5073365;28;20378;-72
2022/12/06 04:56:14;;;;;;;;;;;5.40;99.90;;;;;;5056137;28;19931;-72
2022/12/06 04:58:40;;;;;;;;;;;5.50;99.90;;;;;;5053814;28;19956;-72
2022/12/06 05:01:05;;;;;;;;;;;5.40;99.90;;;;;;5055241;28;20876;-72
2022/12/06 05:03:31;;;;;;;;;;;5.50;99.90;;;;;;5037102;28;19921;-72
2022/12/06 05:05:56;;;;;;;;;;;5.70;99.90;;;;;;5064446;28;19920;-72
2022/12/06 05:08:22;;;;;;;;;;;5.40;99.90;;;;;;5059563;28;20383;-72
2022/12/06 05:10:48;;;;;;;;;;;5.60;99.90;;;;;;5053628;28;19969;-72
2022/12/06 05:13:14;;;;;;;;;;;5.40;99.90;;;;;;5053744;28;19933;-72
2022/12/06 05:15:48;;;;;;;;;;;5.70;99.90;;;;;;5054300;28;19925;-72
2022/12/06 05:18:14;;;;;;;;;;;5.40;99.90;;;;;;5053693;28;20334;-72
2022/12/06 05:20:39;;;;;;;;;;;5.40;99.90;;;;;;5052176;28;19921;-72
2022/12/06 05:23:05;;;;;;;;;;;5.30;99.90;;;;;;5054647;28;19942;-72
2022/12/06 05:25:30;;;;;;;;;;;5.30;99.90;;;;;;5053914;28;19921;-72
2022/12/06 05:27:56;;;;;;;;;;;5.40;99.90;;;;;;5053253;28;19921;-72
2022/12/06 05:30:21;;;;;;;;;;;5.50;99.90;;;;;;5054244;28;20019;-72
2022/12/06 05:32:46;;;;;;;;;;;5.20;99.90;;;;;;5036752;28;19925;-72
2022/12/06 05:35:12;;;;;;;;;;;5.30;99.90;;;;;;5035681;28;19963;-73
2022/12/06 05:37:37;;;;;;;;;;;5.20;99.90;;;;;;5053113;28;20325;-72
2022/12/06 05:40:03;;;;;;;;;;;5.10;99.90;;;;;;5054166;28;20322;-72
2022/12/06 05:42:29;;;;;;;;;;;5.30;99.90;;;;;;5053011;28;19975;-72
2022/12/06 05:44:54;;;;;;;;;;;5.30;99.90;;;;;;5052527;28;20385;-72
2022/12/06 05:47:20;;;;;;;;;;;5.40;99.90;;;;;;5054392;28;19920;-72
2022/12/06 05:49:45;;;;;;;;;;;5.20;99.90;;;;;;5052982;28;19928;-72
2022/12/06 05:52:10;;;;;;;;;;;5.20;99.90;;;;;;5036182;28;19979;-72
2022/12/06 05:54:36;;;;;;;;;;;5.30;99.90;;;;;;5051963;28;19925;-72
2022/12/06 05:57:01;;;;;;;;;;;5.10;99.90;;;;;;5036154;28;19947;-72
2022/12/06 05:59:27;;;;;;;;;;;5.20;99.90;;;;;;5054260;28;19920;-72
2022/12/06 06:01:52;;;;;;;;;;;5.40;99.90;;;;;;5052588;28;19920;-72
2022/12/06 06:04:18;;;;;;;;;;;5.10;99.90;;;;;;5059371;28;19920;-72
2022/12/06 06:06:44;;;;;;;;;;;4.90;99.90;;;;;;5072595;28;20018;-72
2022/12/06 06:09:09;;;;;;;;;;;5.10;99.90;;;;;;5073826;28;20418;-72
2022/12/06 06:11:35;;;;;;;;;;;4.80;99.90;;;;;;5072804;28;20397;-72
2022/12/06 06:14:00;;;;;;;;;;;4.90;99.90;;;;;;5079240;28;19943;-72
2022/12/06 06:16:25;;;;;;;;;;;4.90;99.90;;;;;;5062628;28;19920;-72
2022/12/06 06:18:51;;;;;;;;;;;4.90;99.90;;;;;;5061816;28;19920;-72
2022/12/06 06:21:17;;;;;;;;;;;4.60;99.90;;;;;;5067228;28;19920;-72
2022/12/06 06:23:42;;;;;;;;;;;4.60;99.90;;;;;;5056204;28;19967;-72
2022/12/06 06:26:09;;;;;;;;;;;4.50;99.90;;;;;;5071124;28;20488;-72
2022/12/06 06:28:34;;;;;;;;;;;4.60;99.90;;;;;;5071532;28;19920;-72
2022/12/06 06:31:04;;;;;;;;;;;4.50;99.90;;;;;;5055347;28;19927;-72
2022/12/06 06:33:29;;;;;;;;;;;4.60;99.90;;;;;;5072123;28;20294;-72
2022/12/06 06:35:55;;;;;;;;;;;4.50;99.90;;;;;;5070374;28;19925;-72
2022/12/06 06:38:20;;;;;;;;;;;4.40;99.90;;;;;;5071583;28;20011;-72
2022/12/06 06:40:46;;;;;;;;;;;4.50;99.90;;;;;;5064464;28;20405;-72
2022/12/06 06:43:17;;;;;;;;;;;4.40;99.90;;;;;;5063984;28;20411;-72
2022/12/06 06:45:52;;;;;;;;;;;4.40;99.90;;;;;;5060850;28;19921;-72
2022/12/06 06:48:18;;;;;;;;;;;4.60;99.90;;;;;;5070741;28;19921;-72
2022/12/06 06:50:44;;;;;;;;;;;;;;;;;;5096812;22;19924;-74
2022/12/06 06:53:09;;;;;;;;;;;4.40;99.90;;;;;;5074301;28;19931;-74
2022/12/06 06:55:35;;;;;;;;;;;4.40;99.90;;;;;;5092452;28;19924;-73
2022/12/06 06:58:01;;;;;;;;;;;4.50;99.90;;;;;;5092518;28;19920;-73
2022/12/06 07:00:26;;;;;;;;;;;4.50;99.90;;;;;;5086299;28;19970;-73
2022/12/06 07:02:52;;;;;;;;;;;4.60;99.90;;;;;;5093605;28;19927;-71
2022/12/06 07:05:17;;;;;;;;;;;4.60;99.90;;;;;;5102695;28;19973;-71
2022/12/06 07:07:45;;;;;;;;;;;4.30;99.90;;;;;;5099929;28;19924;-73
2022/12/06 07:10:11;;;;;;;;;;;4.20;99.90;;;;;;5113169;28;19920;-74
2022/12/06 07:12:36;;;;;;;;;;;4.00;99.90;;;;;;5113355;28;19934;-73
2022/12/06 07:15:02;;;;;;;;;;;4.20;99.90;;;;;;5094205;28;19923;-73
2022/12/06 07:17:28;;;;;;;;;;;4.50;99.90;;;;;;5117204;28;19966;-72
2022/12/06 07:19:54;;;;;;;;;;;4.50;99.90;;;;;;5096115;28;19920;-73
2022/12/06 07:22:20;;;;;;;;;;;4.60;99.90;;;;;;5093904;28;19967;-71
2022/12/06 07:24:45;;;;;;;;;;;4.40;99.90;;;;;;5061616;28;19971;-71
2022/12/06 07:27:11;;;;;;;;;;;4.20;99.90;;;;;;5075034;28;19928;-71
2022/12/06 07:29:37;;;;;;;;;;;4.30;99.90;;;;;;5068604;28;19928;-71
2022/12/06 07:32:03;;;;;;;;;;;4.40;99.90;;;;;;5108880;28;19927;-71
2022/12/06 07:34:28;;;;;;;;;;;4.30;99.90;;;;;;5104777;28;20297;-71
2022/12/06 07:36:54;;;;;;;;;;;;;;;;;;5082589;28;20302;-71
2022/12/06 07:39:20;;;;;;;;;;;4.30;99.90;;;;;;5083538;28;20440;-71
2022/12/06 07:47:14;;;;;;;;;;;4.50;99.90;;;;;;5096153;28;19947;-72
2022/12/06 07:49:39;;;;;;;;;;;4.50;99.90;;;;;;5097404;28;19923;-72
2022/12/06 07:52:05;;;;;;;;;;;4.40;99.90;;;;;;5090523;28;20540;-72
2022/12/06 07:54:30;;;;;;;;;;;4.60;99.90;;;;;;5107761;28;19920;-72
2022/12/06 07:56:56;;;;;;;;;;;4.40;99.90;;;;;;5080667;28;20472;-72
2022/12/06 07:59:22;;;;;;;;;;;4.50;99.90;;;;;;5069343;28;19989;-72
2022/12/06 08:01:48;;;;;;;;;;;;;;;;;;5086518;28;20071;-72
2022/12/06 08:04:13;;;;;;;;;;;4.40;99.90;;;;;;5069262;28;20148;-72
2022/12/06 08:06:39;;;;;;;;;;;4.30;99.90;;;;;;5080272;28;19924;-72
2022/12/06 08:09:05;;;;;;;;;;;4.60;99.90;;;;;;5092514;28;19920;-72
2022/12/06 08:11:30;;;;;;;;;;;4.50;99.90;;;;;;5108323;28;19920;-72
2022/12/06 08:13:56;;;;;;;;;;;4.30;99.90;;;;;;5092411;28;19977;-72
2022/12/06 08:16:21;;;;;;;;;;;4.30;99.90;;;;;;5077415;28;19924;-72
2022/12/06 08:18:47;;;;;;;;;;;4.30;99.90;;;;;;5086311;28;19919;-72
2022/12/06 08:21:13;;;;;;;;;;;4.50;99.90;;;;;;5087069;28;19927;-72
2022/12/06 08:23:38;;;;;;;;;;;4.70;99.90;;;;;;5091298;28;20011;-72
2022/12/06 08:26:05;;;;;;;;;;;4.60;99.90;;;;;;5071558;28;20285;-72
2022/12/06 08:28:31;;;;;;;;;;;4.70;99.90;;;;;;5090103;28;20294;-72
2022/12/06 08:30:57;;;;;;;;;;;4.60;99.90;;;;;;5072349;28;20394;-72
2022/12/06 08:33:23;;;;;;;;;;;4.60;99.90;;;;;;5082237;28;19946;-72
2022/12/06 08:35:49;;;;;;;;;;;4.70;99.90;;;;;;5100106;28;19924;-73
2022/12/06 08:38:14;;;;;;;;;;;4.70;99.90;;;;;;5089431;28;19920;-72
2022/12/06 08:40:40;;;;;;;;;;;4.70;99.90;;;;;;5086983;28;19919;-72
2022/12/06 08:43:05;;;;;;;;;;;4.80;99.90;;;;;;5071611;28;20385;-72
2022/12/06 08:45:31;;;;;;;;;;;4.70;99.90;;;;;;5087520;28;19927;-72
2022/12/06 08:47:57;;;;;;;;;;;4.90;99.90;;;;;;5082923;28;19930;-72
2022/12/06 08:50:22;;;;;;;;;;;4.80;99.90;;;;;;5090554;28;19924;-72
2022/12/06 08:52:48;;;;;;;;;;;4.70;99.90;;;;;;5091877;28;19924;-72
2022/12/06 08:55:13;;;;;;;;;;;4.70;99.90;;;;;;5087474;28;19927;-72
2022/12/06 08:57:39;;;;;;;;;;;5.00;99.90;;;;;;5092933;28;20302;-72
2022/12/06 09:00:05;;;;;;;;;;;4.80;99.90;;;;;;5108024;28;20385;-72
2022/12/06 09:02:30;;;;;;;;;;;4.70;99.90;;;;;;5095113;28;19920;-72
2022/12/06 09:04:56;;;;;;;;;;;4.90;99.90;;;;;;5103231;28;19927;-72
2022/12/06 09:07:22;;;;;;;;;;;4.80;99.90;;;;;;5094881;28;19920;-73
2022/12/06 09:09:47;;;;;;;;;;;4.90;99.90;;;;;;5092136;28;19927;-73
2022/12/06 09:12:13;;;;;;;;;;;4.80;99.90;;;;;;5096357;28;19924;-73
2022/12/06 09:14:39;;;;;;;;;;;5.00;99.90;;;;;;5095414;28;19920;-73
2022/12/06 09:17:04;;;;;;;;;;;5.10;99.90;;;;;;5114977;28;19923;-73
2022/12/06 09:19:30;;;;;;;;;;;5.30;99.90;;;;;;5096878;28;19920;-73
2022/12/06 09:21:56;;;;;;;;;;;5.30;99.90;;;;;;5108851;28;19923;-73
2022/12/06 09:24:21;;;;;;;;;;;5.00;99.90;;;;;;5104474;28;19966;-73
2022/12/06 09:26:47;;;;;;;;;;;5.30;99.90;;;;;;5096776;28;20043;-73
2022/12/06 09:29:13;;;;;;;;;;;5.30;99.90;;;;;;5115063;28;20330;-73
2022/12/06 09:31:39;;;;;;;;;;;5.40;99.90;;;;;;5093593;28;20370;-73
2022/12/06 09:34:06;;;;;;;;;;;5.40;99.90;;;;;;5075632;28;19935;-73
2022/12/06 09:36:31;;;;;;;;;;;5.70;99.90;;;;;;5076407;28;19967;-73
2022/12/06 09:39:00;;;;;;;;;;;5.50;99.90;;;;;;5077267;28;19993;-73
2022/12/06 09:41:37;;;;;;;;;;;5.40;99.90;;;;;;5076277;28;19974;-73
2022/12/06 09:44:13;;;;;;;;;;;5.30;99.90;;;;;;5077505;28;20431;-73
2022/12/06 09:46:57;;;;;;;;;;;5.60;99.90;;;;;;5094478;28;19982;-73
2022/12/06 09:49:22;;;;;;;;;;;5.40;99.90;;;;;;5104717;28;20388;-73
2022/12/06 09:52:07;;;;;;;;;;;5.40;99.90;;;;;;5093813;28;19934;-73
2022/12/06 09:54:55;;;;;;;;;;;5.50;99.90;;;;;;5113579;28;20376;-73
2022/12/06 09:57:21;;;;;;;;;;;5.50;99.90;;;;;;5100922;28;19926;-73
2022/12/06 09:59:52;;;;;;;;;;;5.80;99.90;;;;;;5096231;28;20022;-73
2022/12/06 10:02:33;;;;;;;;;;;5.60;99.90;;;;;;5096070;28;19920;-73
2022/12/06 10:04:59;;;;;;;;;;;5.90;99.90;;;;;;5095168;28;19924;-73
2022/12/06 10:07:30;;;;;;;;;;;5.80;99.90;;;;;;5095543;28;19965;-73
2022/12/06 10:09:56;;;;;;;;;;;;;;;;;;5096159;28;20331;-74
2022/12/06 10:12:41;;;;;;;;;;;5.90;99.90;;;;;;5091879;28;19969;-73
2022/12/06 10:15:22;;;;;;;;;;;5.60;99.90;;;;;;5113626;28;19930;-73
2022/12/06 10:17:54;;;;;;;;;;;5.90;99.90;;;;;;5114142;28;19927;-73
2022/12/06 10:20:51;;;;;;;;;;;5.80;99.90;;;;;;5114230;28;19973;-73
2022/12/06 10:23:36;;;;;;;;;;;5.90;99.90;;;;;;5040976;28;19923;-73
2022/12/06 10:26:01;;;;;;;;;;;5.90;99.90;;;;;;5095020;28;19927;-73
2022/12/06 10:28:33;;;;;;;;;;;6.00;99.90;;;;;;5095538;28;19927;-73
2022/12/06 10:31:05;;;;;;;;;;;6.00;99.90;;;;;;5095742;28;20411;-73
2022/12/06 10:33:52;;;;;;;;;;;6.20;99.90;;;;;;5075093;28;19931;-73
2022/12/06 10:36:44;;;;;;;;;;;6.10;99.90;;;;;;5075427;28;19927;-73
2022/12/06 10:39:12;;;;;;;;;;;6.20;99.90;;;;;;5037335;28;20382;-73
2022/12/06 10:41:42;;;;;;;;;;;6.30;99.90;;;;;;5093132;28;19920;-73
2022/12/06 10:44:17;;;;;;;;;;;6.30;99.90;;;;;;5074674;28;20347;-73
2022/12/06 10:47:03;;;;;;;;;;;6.20;99.90;;;;;;5074813;28;19981;-73
2022/12/06 10:49:38;;;;;;;;;;;6.20;99.90;;;;;;5077386;28;19920;-73
2022/12/06 10:52:13;;;;;;;;;;;6.50;99.90;;;;;;5074687;28;19934;-72
2022/12/06 10:54:47;;;;;;;;;;;6.50;99.90;;;;;;5091133;28;19924;-73
2022/12/06 10:57:17;;;;;;;;;;;6.60;99.90;;;;;;5091736;28;19924;-73
2022/12/06 11:00:04;;;;;;;;;;;6.50;99.90;;;;;;5091949;28;20302;-73
2022/12/06 11:02:29;;;;;;;;;;;6.60;99.90;;;;;;5092200;28;19973;-73
2022/12/06 11:04:59;;;;;;;;;;;6.70;99.90;;;;;;5102372;28;19927;-73
2022/12/06 11:07:26;;;;;;;;;;;6.60;99.90;;;;;;5095009;28;19927;-73
2022/12/06 11:09:53;;;;;;;;;;;6.50;99.90;;;;;;5113153;28;19959;-73
2022/12/06 11:12:22;;;;;;;;;;;6.70;99.90;;;;;;5065897;28;19931;-73
2022/12/06 11:14:50;;;;;;;;;;;6.70;99.90;;;;;;5074011;28;19920;-73
2022/12/06 11:17:18;;;;;;;;;;;6.80;99.90;;;;;;5073909;28;19965;-73
2022/12/06 11:19:51;;;;;;;;;;;6.70;99.90;;;;;;5106678;28;19920;-73
2022/12/06 11:22:17;;;;;;;;;;;6.80;99.90;;;;;;5094669;28;19923;-73
2022/12/06 11:25:02;;;;;;;;;;;6.70;99.90;;;;;;5077081;28;19920;-73
2022/12/06 11:27:32;;;;;;;;;;;6.70;99.90;;;;;;5090981;28;20401;-73
2022/12/06 11:29:58;;;;;;;;;;;6.70;99.90;;;;;;5091084;28;20458;-73
2022/12/06 11:32:23;;;;;;;;;;;6.70;99.90;;;;;;5092844;28;20305;-73
2022/12/06 11:34:51;;;;;;;;;;;6.80;99.90;;;;;;5073501;28;19930;-73
2022/12/06 11:37:19;;;;;;;;;;;6.70;99.90;;;;;;5077952;28;19947;-73
2022/12/06 11:39:45;;;;;;;;;;;7.00;99.90;;;;;;5102410;28;19920;-73
2022/12/06 11:42:13;;;;;;;;;;;6.80;99.90;;;;;;5102833;28;19942;-73
2022/12/06 11:44:52;;;;;;;;;;;7.00;99.90;;;;;;5087402;28;20384;-73
2022/12/06 11:47:20;;;;;;;;;;;6.90;99.90;;;;;;5067277;28;19953;-71
2022/12/06 11:49:47;;;;;;;;;;;6.90;99.90;;;;;;5089108;28;19920;-71
2022/12/06 11:52:16;;;;;;;;;;;7.00;99.90;;;;;;5073955;28;19920;-72
2022/12/06 11:54:45;;;;;;;;;;;6.90;99.90;;;;;;5083361;28;19928;-72
2022/12/06 11:57:11;;;;;;;;;;;;;;;;;;5085850;28;20440;-72
2022/12/06 11:59:37;;;;;;;;;;;6.90;99.90;;;;;;5085609;28;20019;-73
2022/12/06 12:02:02;;;;;;;;;;;6.90;99.90;;;;;;5058161;28;19920;-72
2022/12/06 12:04:30;;;;;;;;;;;7.00;99.90;;;;;;5086298;28;19935;-72
2022/12/06 12:07:08;;;;;;;;;;;7.10;99.90;;;;;;5082450;28;19924;-71
2022/12/06 12:09:42;;;;;;;;;;;7.10;99.90;;;;;;5103941;28;19974;-71
2022/12/06 12:12:13;;;;;;;;;;;7.10;99.90;;;;;;5085994;28;19930;-71
2022/12/06 12:14:39;;;;;;;;;;;7.00;99.90;;;;;;5058478;28;19984;-71
2022/12/06 12:17:13;;;;;;;;;;;7.20;99.90;;;;;;5096942;28;20397;-71
2022/12/06 12:19:38;;;;;;;;;;;7.00;99.90;;;;;;5090440;28;20411;-72
2022/12/06 12:22:15;;;;;;;;;;;7.10;99.90;;;;;;5078423;28;19927;-71
2022/12/06 12:24:41;;;;;;;;;;;;;;;;;;5101820;28;19923;-71
2022/12/06 12:27:25;;;;;;;;;;;7.00;99.90;;;;;;5102028;28;20427;-71
2022/12/06 12:30:10;;;;;;;;;;;7.20;99.90;;;;;;5086569;28;19924;-70
2022/12/06 12:32:35;;;;;;;;;;;7.10;99.90;;;;;;5109009;28;20178;-71
2022/12/06 12:35:16;;;;;;;;;;;7.50;99.90;;;;;;5087293;28;19989;-71
2022/12/06 12:37:42;;;;;;;;;;;7.30;99.90;;;;;;5105115;28;19927;-71
2022/12/06 12:40:20;;;;;;;;;;;7.10;99.90;;;;;;5093494;28;19920;-71
2022/12/06 12:42:46;;;;;;;;;;;7.30;99.90;;;;;;5094807;28;19943;-71
2022/12/06 12:45:18;;;;;;;;;;;7.10;99.90;;;;;;5093050;28;20386;-71
2022/12/06 12:48:03;;;;;;;;;;;7.00;99.90;;;;;;5100393;28;20310;-71
2022/12/06 12:50:30;;;;;;;;;;;7.30;99.90;;;;;;5087339;28;19943;-71
2022/12/06 12:52:55;;;;;;;;;;;7.30;99.90;;;;;;5112318;28;19940;-72
2022/12/06 12:55:25;;;;;;;;;;;7.40;99.90;;;;;;5083493;28;19920;-70
2022/12/06 12:57:52;;;;;;;;;;;7.20;99.90;;;;;;5076897;28;19931;-70
2022/12/06 13:00:20;;;;;;;;;;;7.30;99.90;;;;;;5085820;28;20007;-71
2022/12/06 13:02:52;;;;;;;;;;;7.20;99.90;;;;;;5094946;28;20366;-70
2022/12/06 13:05:23;;;;;;;;;;;7.10;99.90;;;;;;5086874;28;19969;-70
2022/12/06 13:07:49;;;;;;;;;;;7.00;99.90;;;;;;5106929;28;19999;-71
2022/12/06 13:10:25;;;;;;;;;;;7.20;99.90;;;;;;5069654;28;20382;-71
2022/12/06 13:12:56;;;;;;;;;;;7.10;99.90;;;;;;5108283;28;20334;-70
2022/12/06 13:15:30;;;;;;;;;;;7.30;99.90;;;;;;5095883;28;19920;-70
2022/12/06 13:18:00;;;;;;;;;;;7.20;99.90;;;;;;5092670;28;19945;-71
2022/12/06 13:20:28;;;;;;;;;;;7.20;99.90;;;;;;5096316;28;19934;-70
2022/12/06 13:22:56;;;;;;;;;;;7.40;99.90;;;;;;5113145;28;19967;-71
2022/12/06 13:25:21;;;;;;;;;;;7.30;99.90;;;;;;5114267;28;19920;-70
2022/12/06 13:27:50;;;;;;;;;;;7.50;99.90;;;;;;5112700;28;19931;-72
2022/12/06 13:30:17;;;;;;;;;;;7.30;99.90;;;;;;5079052;28;19927;-71
2022/12/06 13:32:45;;;;;;;;;;;7.30;99.90;;;;;;5093104;28;19928;-71
2022/12/06 13:35:17;;;;;;;;;;;7.30;99.90;;;;;;5090234;28;19943;-71
2022/12/06 13:37:49;;;;;;;;;;;7.30;99.90;;;;;;5090700;28;19920;-71
2022/12/06 13:40:33;;;;;;;;;;;7.40;99.90;;;;;;5092455;28;20007;-72
2022/12/06 13:43:00;;;;;;;;;;;7.20;99.90;;;;;;5090519;28;19920;-73
2022/12/06 13:45:44;;;;;;;;;;;7.20;99.90;;;;;;5091842;28;20444;-70
2022/12/06 13:48:24;;;;;;;;;;;7.20;99.90;;;;;;5093376;28;19924;-71
2022/12/06 13:50:57;;;;;;;;;;;7.30;99.90;;;;;;5093713;28;19920;-70
2022/12/06 13:53:24;;;;;;;;;;;7.40;99.90;;;;;;5092912;28;19924;-70
2022/12/06 13:55:51;;;;;;;;;;;7.20;99.90;;;;;;5093596;28;19935;-71
2022/12/06 13:58:16;;;;;;;;;;;7.50;99.90;;;;;;5113835;28;20421;-70
2022/12/06 14:00:42;;;;;;;;;;;7.30;99.90;;;;;;5090864;28;19927;-70
2022/12/06 14:03:17;;;;;;;;;;;7.30;99.90;;;;;;5075811;28;20305;-71
2022/12/06 14:06:02;;;;;;;;;;;7.40;99.90;;;;;;5092329;28;20385;-70
2022/12/06 14:08:37;;;;;;;;;;;7.10;99.90;;;;;;5093644;28;19919;-71
2022/12/06 14:11:14;;;;;;;;;;;7.00;99.90;;;;;;5082756;28;19974;-71
2022/12/06 14:13:41;;;;;;;;;;;7.20;99.90;;;;;;5076656;28;19924;-71
2022/12/06 14:16:07;;;;;;;;;;;7.30;99.90;;;;;;5092846;28;19920;-71
2022/12/06 14:18:33;;;;;;;;;;;7.20;99.90;;;;;;5093375;28;19931;-71
2022/12/06 14:21:00;;;;;;;;;;;7.30;99.90;;;;;;5093349;28;19920;-71
2022/12/06 14:23:27;;;;;;;;;;;7.40;99.90;;;;;;5075371;28;20034;-70
2022/12/06 14:26:13;;;;;;;;;;;7.10;99.90;;;;;;5074685;28;19931;-71
2022/12/06 14:28:39;;;;;;;;;;;7.20;99.90;;;;;;5074277;28;19920;-71
2022/12/06 14:31:05;;;;;;;;;;;7.20;99.90;;;;;;5075009;28;19928;-70
2022/12/06 14:33:31;;;;;;;;;;;7.30;99.90;;;;;;5074955;28;19950;-71
2022/12/06 14:35:57;;;;;;;;;;;7.30;99.90;;;;;;5073900;28;19924;-70
2022/12/06 14:38:22;;;;;;;;;;;7.20;99.90;;;;;;5104105;28;19926;-71
2022/12/06 14:43:32;;;;;;;;;;;7.20;99.90;;;;;;5113476;28;19942;-71
2022/12/06 14:45:59;;;;;;;;;;;7.00;99.90;;;;;;5112154;28;20370;-70
2022/12/06 14:48:25;;;;;;;;;;;7.30;99.90;;;;;;5113039;28;19920;-71
2022/12/06 14:50:50;;;;;;;;;;;7.20;99.90;;;;;;5113160;28;20328;-72
2022/12/06 14:53:32;;;;;;;;;;;7.30;99.90;;;;;;5078277;28;20019;-71
2022/12/06 14:55:59;;;;;;;;;;;7.10;99.90;;;;;;5074177;28;19926;-71
2022/12/06 14:58:32;;;;;;;;;;;7.10;99.90;;;;;;5092601;28;19920;-72
2022/12/06 15:00:59;;;;;;;;;;;7.10;99.90;;;;;;5074678;28;19923;-71
2022/12/06 15:03:27;;;;;;;;;;;7.00;99.90;;;;;;5093244;28;19971;-72
2022/12/06 15:06:13;;;;;;;;;;;6.90;99.90;;;;;;5095166;28;19924;-71
2022/12/06 15:08:39;;;;;;;;;;;7.00;99.90;;;;;;5091791;28;19920;-71